CYZF

Yellowknife Airport

Airport
ICAO code
CYZF
IATA Code
YZF
Summary
ICAO Region
NAM
ICAO Territory
Location

Yellowknife, Northwest Territories

Serving
Yellowknife
Elevation
675 ft
Coordinates
62° 28' 5" N , 114° 26' 33" W
KCC
Airport BS
Bird Strike
Non Avian Wildlife Hazards to Aircraft
Airport CFIT
Altimeter Temperature Error Correction
Airport GND
Aircraft Ground De/Anti Icing
Airport RE
Landing on Contaminated Runways
Metar
Observation
CYZF 281100Z 35014G20KT 10SM -SN BKN046 M17/M21 A3033 RMK SC7 SLP299
Station
Yellowknife, N. W. T.
Date/Time
2022-11-28 11:00:00
Wind direction
350°
Wind speed
14 kts
Lowest cloud amount
broken clouds
Temperature
-17°C
Dew point
-21°C
Humidity
70%
Weather condition
light snow

Description

International airport serving Yellowknife, the capital of the Northwest Territories.

Climatology

Subarctic climate (Köppen climate classification Dfc) - long, usually very cold winters, and short, cool to mild summers.

Runways

Designator Length Width Surface Rops
9/27 1524 46 ASP Yes/Yes
15/33 2286 46 ASP Yes/Yes

Airport map

Aerial View

SKYbrary Partners:

Safety knowledge contributed by: